Time;durP1;ratioP1;P1;durP2;ratioP2;P2;SDS_P1;SDS_P2;PMS_P1;PMS_P2;Temp;Humidity;BMP_temperature;BMP_pressure;BME280_temperature;BME280_humidity;BME280_pressure;Samples;Min_cycle;Max_cycle;Signal;HPM_P1;HPM_P2
2022/03/17 00:00:07;;;;;;;26.45;23.75;;;;;;;;;;507889;29;849;-73
2022/03/17 00:00:22;;;;;;;26.60;23.90;;;;;;;;;;508344;29;857;-73
2022/03/17 00:00:38;;;;;;;26.67;23.98;;;;;;;;;;508391;29;820;-73
2022/03/17 00:00:54;;;;;;;27.03;24.33;;;;;;;;;;508298;29;824;-73
2022/03/17 00:01:10;;;;;;;27.52;24.73;;;;;;;;;;509223;29;909;-73
2022/03/17 00:01:25;;;;;;;27.27;24.40;;;;;;;;;;509130;29;1147;-73
2022/03/17 00:01:41;;;;;;;26.52;23.83;;;;;;;;;;511278;29;796;-73
2022/03/17 00:01:56;;;;;;;26.47;23.77;;;;;;;;;;509890;29;1155;-72
2022/03/17 00:02:11;;;;;;;26.48;23.67;;;;;;;;;;508217;29;1213;-73
2022/03/17 00:02:26;;;;;;;25.53;22.93;;;;;;;;;;507991;29;1176;-73
2022/03/17 00:02:43;;;;;;;25.57;22.97;;;;;;;;;;508490;29;850;-73
2022/03/17 00:02:58;;;;;;;26.73;23.83;;;;;;;;;;508298;29;1255;-73
2022/03/17 00:03:13;;;;;;;26.92;24.05;;;;;;;;;;506153;29;1468;-73
2022/03/17 00:03:28;;;;;;;26.70;24.00;;;;;;;;;;505909;29;1193;-73
2022/03/17 00:03:44;;;;;;;26.73;24.00;;;;;;;;;;506284;29;1274;-73
2022/03/17 00:04:00;;;;;;;26.33;23.52;;;;;;;;;;506026;29;826;-73
2022/03/17 00:04:15;;;;;;;25.93;23.23;;;;;;;;;;508148;29;751;-73
2022/03/17 00:04:31;;;;;;;26.00;23.40;;;;;;;;;;508324;29;972;-73
2022/03/17 00:04:47;;;;;;;25.95;23.35;;;;;;;;;;506587;29;1218;-73
2022/03/17 00:05:04;;;;;;;25.95;23.33;;;;;;;;;;508383;29;802;-73
2022/03/17 00:05:20;;;;;;;25.92;23.25;;;;;;;;;;510617;29;892;-73
2022/03/17 00:05:37;;;;;;;26.60;23.80;;;;;;;;;;512344;29;911;-73
2022/03/17 00:05:52;;;;;;;26.40;23.77;;;;;;;;;;512350;29;956;-73
2022/03/17 00:06:11;;;;;;;25.87;23.27;;;;;;;;;;509472;29;1182;-73
2022/03/17 00:06:27;;;;;;;25.35;22.75;;;;;;;;;;510209;29;877;-73
2022/03/17 00:06:42;;;;;;;25.38;22.80;;;;;;;;;;511421;29;821;-73
2022/03/17 00:06:58;;;;;;;25.17;22.67;;;;;;;;;;511975;29;916;-72
2022/03/17 00:07:14;;;;;;;25.02;22.55;;;;;;;;;;512106;29;845;-72
2022/03/17 00:07:30;;;;;;;25.55;23.05;;;;;;;;;;511858;29;1914;-72
2022/03/17 00:07:46;;;;;;;26.02;23.33;;;;;;;;;;512025;29;848;-72
2022/03/17 00:08:01;;;;;;;26.10;23.40;;;;;;;;;;512261;29;982;-72
2022/03/17 00:08:17;;;;;;;25.83;23.27;;;;;;;;;;511656;28;1524;-71
2022/03/17 00:08:32;;;;;;;26.17;23.58;;;;;;;;;;513068;28;901;-72
2022/03/17 00:08:47;;;;;;;26.47;23.77;;;;;;;;;;514287;28;920;-72
2022/03/17 00:09:04;;;;;;;25.50;23.00;;;;;;;;;;514094;28;948;-72
2022/03/17 00:09:20;;;;;;;25.20;22.60;;;;;;;;;;511848;29;1523;-72
2022/03/17 00:09:35;;;;;;;26.10;23.33;;;;;;;;;;512142;29;817;-72
2022/03/17 00:09:50;;;;;;;26.52;23.83;;;;;;;;;;509493;29;1653;-72
2022/03/17 00:10:08;;;;;;;26.43;23.63;;;;;;;;;;509466;29;1428;-72
2022/03/17 00:10:23;;;;;;;25.67;22.92;;;;;;;;;;511226;29;1265;-72
2022/03/17 00:10:38;;;;;;;25.58;22.98;;;;;;;;;;512148;29;944;-72
2022/03/17 00:10:53;;;;;;;25.97;23.47;;;;;;;;;;512117;29;1233;-72
2022/03/17 00:11:09;;;;;;;25.93;23.33;;;;;;;;;;511078;29;830;-72
2022/03/17 00:11:24;;;;;;;25.92;23.30;;;;;;;;;;510462;29;1426;-72
2022/03/17 00:11:40;;;;;;;26.60;23.90;;;;;;;;;;513382;28;1423;-72
2022/03/17 00:11:55;;;;;;;26.45;23.85;;;;;;;;;;514774;28;1482;-72
2022/03/17 00:12:11;;;;;;;25.73;23.20;;;;;;;;;;514386;28;1505;-72
2022/03/17 00:12:26;;;;;;;26.40;23.80;;;;;;;;;;513518;28;829;-72
2022/03/17 00:12:44;;;;;;;26.90;24.20;;;;;;;;;;514289;28;810;-72
2022/03/17 00:12:59;;;;;;;26.60;23.98;;;;;;;;;;514217;28;817;-72
2022/03/17 00:13:14;;;;;;;26.50;23.90;;;;;;;;;;513895;28;1538;-72
2022/03/17 00:13:30;;;;;;;26.67;23.97;;;;;;;;;;515234;28;832;-72
2022/03/17 00:13:46;;;;;;;26.73;24.02;;;;;;;;;;515659;28;895;-72
2022/03/17 00:14:01;;;;;;;26.63;23.93;;;;;;;;;;513976;28;884;-72
2022/03/17 00:14:17;;;;;;;26.77;24.08;;;;;;;;;;514620;28;1189;-72
2022/03/17 00:14:32;;;;;;;26.53;23.77;;;;;;;;;;513857;28;1287;-72
2022/03/17 00:14:47;;;;;;;25.20;22.60;;;;;;;;;;514163;28;762;-72
2022/03/17 00:15:04;;;;;;;24.70;22.30;;;;;;;;;;513528;28;777;-72
2022/03/17 00:15:19;;;;;;;25.15;22.67;;;;;;;;;;514011;28;840;-72
2022/03/17 00:15:35;;;;;;;25.15;22.65;;;;;;;;;;511983;28;1161;-72
2022/03/17 00:15:50;;;;;;;25.43;22.90;;;;;;;;;;511901;29;1134;-72
2022/03/17 00:16:06;;;;;;;25.87;23.27;;;;;;;;;;511907;29;746;-72
2022/03/17 00:16:21;;;;;;;26.63;23.83;;;;;;;;;;512233;29;715;-72
2022/03/17 00:16:36;;;;;;;26.63;23.83;;;;;;;;;;511657;29;1257;-72
2022/03/17 00:16:52;;;;;;;25.63;22.98;;;;;;;;;;512024;29;912;-72
2022/03/17 00:17:08;;;;;;;25.50;22.90;;;;;;;;;;510488;29;1498;-72
2022/03/17 00:17:23;;;;;;;25.63;23.02;;;;;;;;;;510303;29;952;-72
2022/03/17 00:17:40;;;;;;;25.97;23.30;;;;;;;;;;513847;28;1463;-72
2022/03/17 00:17:57;;;;;;;26.73;24.00;;;;;;;;;;513879;28;722;-72
2022/03/17 00:18:12;;;;;;;27.60;24.88;;;;;;;;;;511514;28;1575;-72
2022/03/17 00:18:27;;;;;;;27.53;24.80;;;;;;;;;;511720;28;919;-73
2022/03/17 00:18:42;;;;;;;26.83;24.20;;;;;;;;;;511630;28;837;-72
2022/03/17 00:18:58;;;;;;;26.73;24.13;;;;;;;;;;511884;28;1246;-72
2022/03/17 00:19:13;;;;;;;26.63;23.93;;;;;;;;;;512022;28;963;-72
2022/03/17 00:19:29;;;;;;;26.38;23.67;;;;;;;;;;513939;28;766;-72
2022/03/17 00:19:45;;;;;;;26.73;24.00;;;;;;;;;;513865;28;845;-71
2022/03/17 00:20:02;;;;;;;26.77;23.98;;;;;;;;;;511635;28;1256;-72
2022/03/17 00:20:17;;;;;;;26.50;23.85;;;;;;;;;;513957;28;821;-72
2022/03/17 00:20:33;;;;;;;26.00;23.45;;;;;;;;;;514066;28;877;-72
2022/03/17 00:20:48;;;;;;;25.63;23.10;;;;;;;;;;512094;28;1185;-72
2022/03/17 00:21:03;;;;;;;25.37;22.83;;;;;;;;;;513918;28;904;-72
2022/03/17 00:21:18;;;;;;;25.55;22.98;;;;;;;;;;513981;28;715;-72
2022/03/17 00:21:38;;;;;;;26.37;23.67;;;;;;;;;;513952;28;1080;-72
2022/03/17 00:21:53;;;;;;;26.02;23.42;;;;;;;;;;514098;28;797;-72
2022/03/17 00:22:09;;;;;;;25.50;22.88;;;;;;;;;;511833;28;1223;-72
2022/03/17 00:22:24;;;;;;;25.63;22.97;;;;;;;;;;511991;29;1307;-72
2022/03/17 00:22:40;;;;;;;25.83;23.23;;;;;;;;;;512920;28;762;-72
2022/03/17 00:22:55;;;;;;;26.08;23.48;;;;;;;;;;513863;28;833;-72
2022/03/17 00:23:10;;;;;;;26.00;23.43;;;;;;;;;;513982;28;1526;-72
2022/03/17 00:23:26;;;;;;;25.87;23.37;;;;;;;;;;514616;28;907;-72
2022/03/17 00:23:41;;;;;;;26.47;23.90;;;;;;;;;;514299;28;852;-72
2022/03/17 00:23:56;;;;;;;26.42;23.77;;;;;;;;;;510240;29;1350;-72
2022/03/17 00:24:12;;;;;;;25.93;23.27;;;;;;;;;;512326;28;909;-73
2022/03/17 00:24:27;;;;;;;25.97;23.37;;;;;;;;;;515852;28;785;-72
2022/03/17 00:24:43;;;;;;;26.08;23.48;;;;;;;;;;516043;28;753;-72
2022/03/17 00:24:59;;;;;;;26.30;23.65;;;;;;;;;;515302;28;872;-72
2022/03/17 00:25:14;;;;;;;26.75;24.02;;;;;;;;;;516173;28;762;-73
2022/03/17 00:25:30;;;;;;;26.80;24.10;;;;;;;;;;514247;28;972;-73
2022/03/17 00:25:45;;;;;;;26.55;23.88;;;;;;;;;;512449;28;1352;-72
2022/03/17 00:26:00;;;;;;;25.97;23.37;;;;;;;;;;514147;28;904;-72
2022/03/17 00:26:16;;;;;;;26.23;23.53;;;;;;;;;;514183;28;1014;-72
2022/03/17 00:26:31;;;;;;;26.50;23.73;;;;;;;;;;512051;29;1284;-72
2022/03/17 00:26:47;;;;;;;25.90;23.20;;;;;;;;;;512320;29;941;-72
2022/03/17 00:27:06;;;;;;;26.20;23.57;;;;;;;;;;511768;29;712;-72
2022/03/17 00:27:21;;;;;;;26.20;23.60;;;;;;;;;;512129;29;944;-71
2022/03/17 00:27:37;;;;;;;26.07;23.47;;;;;;;;;;512646;28;1907;-72
2022/03/17 00:27:52;;;;;;;25.55;23.15;;;;;;;;;;514119;28;935;-72
2022/03/17 00:28:07;;;;;;;25.03;22.63;;;;;;;;;;514029;28;742;-72
2022/03/17 00:28:23;;;;;;;25.30;22.80;;;;;;;;;;514126;28;1527;-72
2022/03/17 00:28:39;;;;;;;25.35;22.85;;;;;;;;;;516071;28;784;-72
2022/03/17 00:28:54;;;;;;;25.60;23.00;;;;;;;;;;514421;28;793;-72
2022/03/17 00:29:09;;;;;;;25.60;23.00;;;;;;;;;;513889;28;817;-72
2022/03/17 00:29:25;;;;;;;25.80;23.20;;;;;;;;;;515865;28;754;-72
2022/03/17 00:29:40;;;;;;;26.50;23.70;;;;;;;;;;516164;28;1251;-73
2022/03/17 00:29:56;;;;;;;25.97;23.30;;;;;;;;;;513586;28;1165;-72
2022/03/17 00:30:12;;;;;;;25.88;23.27;;;;;;;;;;514160;28;883;-72
2022/03/17 00:30:27;;;;;;;26.90;24.20;;;;;;;;;;511792;28;1332;-72
2022/03/17 00:30:42;;;;;;;26.93;24.27;;;;;;;;;;511951;29;1051;-72
2022/03/17 00:30:58;;;;;;;26.53;23.73;;;;;;;;;;511974;29;840;-72
2022/03/17 00:31:16;;;;;;;25.88;23.25;;;;;;;;;;511326;29;817;-72
2022/03/17 00:31:31;;;;;;;25.63;23.13;;;;;;;;;;511948;28;1445;-72
2022/03/17 00:31:46;;;;;;;25.50;22.90;;;;;;;;;;513372;28;1418;-72
2022/03/17 00:32:03;;;;;;;25.63;23.03;;;;;;;;;;515238;28;1359;-72
2022/03/17 00:32:18;;;;;;;25.67;23.17;;;;;;;;;;513671;28;1154;-72
2022/03/17 00:32:34;;;;;;;25.60;23.10;;;;;;;;;;513872;28;730;-72
2022/03/17 00:32:49;;;;;;;25.73;23.13;;;;;;;;;;514086;28;1287;-72
2022/03/17 00:33:04;;;;;;;25.77;23.17;;;;;;;;;;512062;29;1150;-72
2022/03/17 00:33:20;;;;;;;26.20;23.60;;;;;;;;;;509728;29;1512;-72
2022/03/17 00:33:35;;;;;;;25.95;23.35;;;;;;;;;;511059;29;1098;-72
2022/03/17 00:33:50;;;;;;;25.40;22.90;;;;;;;;;;510796;29;754;-72
2022/03/17 00:34:07;;;;;;;25.47;22.97;;;;;;;;;;507701;29;1107;-72
2022/03/17 00:34:22;;;;;;;24.92;22.42;;;;;;;;;;509274;29;1159;-72
2022/03/17 00:35:35;;;;;;;24.87;22.40;;;;;;;;;;510312;29;1134;-73
2022/03/17 00:35:47;;;;;;;26.08;23.45;;;;;;;;;;514066;28;1100;-72
2022/03/17 00:36:02;;;;;;;25.67;23.08;;;;;;;;;;514104;28;746;-72
2022/03/17 00:36:17;;;;;;;25.47;22.90;;;;;;;;;;512181;28;1280;-72
2022/03/17 00:36:34;;;;;;;25.63;23.02;;;;;;;;;;514254;28;722;-72
2022/03/17 00:36:49;;;;;;;25.88;23.17;;;;;;;;;;514122;28;825;-72
2022/03/17 00:37:04;;;;;;;25.63;23.00;;;;;;;;;;513579;28;1303;-72
2022/03/17 00:37:19;;;;;;;25.75;23.15;;;;;;;;;;513789;28;967;-72
2022/03/17 00:37:35;;;;;;;26.10;23.40;;;;;;;;;;514015;28;1078;-72
2022/03/17 00:37:50;;;;;;;26.20;23.50;;;;;;;;;;514270;28;983;-72
2022/03/17 00:38:09;;;;;;;25.92;23.33;;;;;;;;;;514419;28;924;-72
2022/03/17 00:38:25;;;;;;;26.27;23.55;;;;;;;;;;514165;28;1700;-72
2022/03/17 00:38:40;;;;;;;25.23;22.63;;;;;;;;;;514118;28;1258;-72
2022/03/17 00:38:55;;;;;;;25.27;22.70;;;;;;;;;;512688;28;1193;-73
2022/03/17 00:39:11;;;;;;;26.13;23.52;;;;;;;;;;514208;28;936;-73
2022/03/17 00:39:26;;;;;;;25.90;23.30;;;;;;;;;;513489;28;758;-73
2022/03/17 00:39:42;;;;;;;25.90;23.25;;;;;;;;;;513860;28;952;-73
2022/03/17 00:39:57;;;;;;;26.20;23.57;;;;;;;;;;513435;28;888;-72
2022/03/17 00:40:13;;;;;;;25.70;23.07;;;;;;;;;;513959;28;785;-72
2022/03/17 00:40:29;;;;;;;26.02;23.35;;;;;;;;;;514161;28;868;-72
2022/03/17 00:40:46;;;;;;;27.00;24.30;;;;;;;;;;515992;28;867;-72
2022/03/17 00:41:01;;;;;;;26.90;24.20;;;;;;;;;;515983;28;793;-73
2022/03/17 00:41:17;;;;;;;26.33;23.73;;;;;;;;;;514029;28;979;-73
2022/03/17 00:41:32;;;;;;;26.50;23.90;;;;;;;;;;513882;28;733;-73
2022/03/17 00:41:48;;;;;;;27.25;24.55;;;;;;;;;;513953;28;1195;-72
2022/03/17 00:42:03;;;;;;;27.23;24.43;;;;;;;;;;513903;28;754;-72
2022/03/17 00:42:19;;;;;;;27.00;24.17;;;;;;;;;;513975;28;980;-72
2022/03/17 00:42:36;;;;;;;27.00;24.08;;;;;;;;;;513722;28;1424;-73
2022/03/17 00:42:51;;;;;;;26.33;23.55;;;;;;;;;;514268;28;805;-72
2022/03/17 00:43:08;;;;;;;26.92;24.13;;;;;;;;;;514203;28;765;-72
2022/03/17 00:43:24;;;;;;;27.23;24.33;;;;;;;;;;513631;28;1523;-72
2022/03/17 00:43:39;;;;;;;26.88;24.08;;;;;;;;;;512319;28;1407;-72
2022/03/17 00:43:55;;;;;;;26.20;23.40;;;;;;;;;;513955;28;864;-72
2022/03/17 00:44:11;;;;;;;25.85;23.13;;;;;;;;;;511750;28;1334;-72
2022/03/17 00:44:26;;;;;;;26.08;23.38;;;;;;;;;;510829;28;1666;-72
2022/03/17 00:44:41;;;;;;;26.40;23.70;;;;;;;;;;512183;29;864;-72
2022/03/17 00:44:57;;;;;;;26.30;23.67;;;;;;;;;;511681;29;762;-72
2022/03/17 00:45:12;;;;;;;26.50;23.90;;;;;;;;;;512165;29;837;-72
2022/03/17 00:45:28;;;;;;;26.90;24.10;;;;;;;;;;510473;29;1158;-72
2022/03/17 00:45:45;;;;;;;27.08;24.17;;;;;;;;;;511580;29;940;-72
2022/03/17 00:46:00;;;;;;;27.13;24.33;;;;;;;;;;510704;29;1240;-72
2022/03/17 00:46:15;;;;;;;26.70;24.10;;;;;;;;;;511924;28;1357;-72
2022/03/17 00:46:30;;;;;;;26.30;23.70;;;;;;;;;;509997;29;1137;-72
2022/03/17 00:46:46;;;;;;;26.07;23.37;;;;;;;;;;509850;29;837;-72
2022/03/17 00:47:01;;;;;;;26.20;23.50;;;;;;;;;;510098;29;857;-72
2022/03/17 00:47:16;;;;;;;26.47;23.77;;;;;;;;;;508383;29;1182;-72
2022/03/17 00:47:32;;;;;;;26.50;23.80;;;;;;;;;;509898;29;1964;-72
2022/03/17 00:47:47;;;;;;;26.10;23.50;;;;;;;;;;509806;29;816;-72
2022/03/17 00:48:03;;;;;;;26.20;23.60;;;;;;;;;;511885;29;1440;-72
2022/03/17 00:48:18;;;;;;;26.10;23.50;;;;;;;;;;512477;28;1467;-73
2022/03/17 00:48:34;;;;;;;25.97;23.47;;;;;;;;;;514721;28;853;-73
2022/03/17 00:48:49;;;;;;;26.07;23.57;;;;;;;;;;513145;28;1181;-73
2022/03/17 00:49:04;;;;;;;26.08;23.48;;;;;;;;;;514126;28;1503;-73
2022/03/17 00:49:19;;;;;;;26.13;23.53;;;;;;;;;;513245;28;1137;-72
2022/03/17 00:49:35;;;;;;;26.37;23.77;;;;;;;;;;512128;29;968;-72
2022/03/17 00:49:50;;;;;;;25.88;23.25;;;;;;;;;;511473;28;1292;-72
2022/03/17 00:50:07;;;;;;;25.83;23.23;;;;;;;;;;511839;28;1312;-72
2022/03/17 00:50:23;;;;;;;26.20;23.60;;;;;;;;;;512210;29;884;-72
2022/03/17 00:50:38;;;;;;;26.10;23.50;;;;;;;;;;512109;29;976;-72
2022/03/17 00:50:53;;;;;;;25.47;22.87;;;;;;;;;;510252;29;1154;-72
2022/03/17 00:51:09;;;;;;;25.03;22.53;;;;;;;;;;509904;29;944;-72
2022/03/17 00:51:24;;;;;;;25.27;22.70;;;;;;;;;;510366;29;774;-72
2022/03/17 00:51:40;;;;;;;26.03;23.33;;;;;;;;;;510491;29;1015;-72
2022/03/17 00:51:55;;;;;;;26.58;23.88;;;;;;;;;;512442;28;887;-72
2022/03/17 00:52:12;;;;;;;26.40;23.73;;;;;;;;;;514067;28;753;-72
2022/03/17 00:52:27;;;;;;;25.73;23.23;;;;;;;;;;514228;28;833;-72
2022/03/17 00:52:42;;;;;;;25.13;22.63;;;;;;;;;;514071;28;904;-72
2022/03/17 00:52:59;;;;;;;25.38;22.80;;;;;;;;;;514220;28;750;-72
2022/03/17 00:53:14;;;;;;;25.52;22.95;;;;;;;;;;513594;28;1726;-72
2022/03/17 00:53:29;;;;;;;26.03;23.40;;;;;;;;;;514513;28;1231;-72
2022/03/17 00:53:46;;;;;;;26.80;24.00;;;;;;;;;;513774;28;1180;-72
2022/03/17 00:54:01;;;;;;;26.35;23.65;;;;;;;;;;513335;28;796;-72
2022/03/17 00:54:16;;;;;;;25.77;23.23;;;;;;;;;;513448;28;969;-72
2022/03/17 00:54:32;;;;;;;26.35;23.65;;;;;;;;;;509925;29;1217;-72
2022/03/17 00:54:47;;;;;;;27.00;24.20;;;;;;;;;;510203;29;900;-72
2022/03/17 00:55:05;;;;;;;26.50;23.80;;;;;;;;;;507767;29;1182;-72
2022/03/17 00:55:22;;;;;;;25.95;23.25;;;;;;;;;;509144;29;1366;-72
2022/03/17 00:55:37;;;;;;;26.48;23.70;;;;;;;;;;509979;29;1197;-72
2022/03/17 00:55:52;;;;;;;26.57;23.83;;;;;;;;;;510188;29;794;-72
2022/03/17 00:56:09;;;;;;;26.87;24.07;;;;;;;;;;509532;29;995;-72
2022/03/17 00:56:24;;;;;;;26.65;23.88;;;;;;;;;;510877;29;802;-72
2022/03/17 00:56:39;;;;;;;26.43;23.73;;;;;;;;;;512020;29;801;-72
2022/03/17 00:56:54;;;;;;;26.92;24.05;;;;;;;;;;511925;29;911;-72
2022/03/17 00:57:10;;;;;;;27.17;24.27;;;;;;;;;;510479;29;1162;-72
2022/03/17 00:57:26;;;;;;;26.08;23.48;;;;;;;;;;512187;28;920;-72
2022/03/17 00:57:41;;;;;;;26.00;23.40;;;;;;;;;;514072;28;1037;-72
2022/03/17 00:57:57;;;;;;;26.05;23.50;;;;;;;;;;514079;28;935;-72
2022/03/17 00:58:12;;;;;;;25.90;23.30;;;;;;;;;;513470;28;1492;-72
2022/03/17 00:58:29;;;;;;;26.17;23.58;;;;;;;;;;515182;28;1196;-72
2022/03/17 00:58:45;;;;;;;26.70;24.10;;;;;;;;;;512369;28;1508;-72
2022/03/17 00:59:01;;;;;;;26.55;23.85;;;;;;;;;;514004;28;1438;-72
2022/03/17 00:59:16;;;;;;;26.80;24.00;;;;;;;;;;514182;28;808;-72
2022/03/17 00:59:32;;;;;;;26.77;24.08;;;;;;;;;;511966;29;1545;-72
2022/03/17 00:59:49;;;;;;;26.58;23.90;;;;;;;;;;509859;29;1293;-71
2022/03/17 01:00:05;;;;;;;27.33;24.25;;;;;;;;;;509628;29;860;-72
2022/03/17 01:00:21;;;;;;;27.35;24.35;;;;;;;;;;508378;29;1422;-72
2022/03/17 01:00:36;;;;;;;27.50;24.67;;;;;;;;;;510669;29;797;-72
2022/03/17 01:00:52;;;;;;;27.33;24.47;;;;;;;;;;509927;29;1309;-72
2022/03/17 01:01:08;;;;;;;27.47;24.67;;;;;;;;;;509695;29;689;-72
2022/03/17 01:01:23;;;;;;;26.88;24.08;;;;;;;;;;510769;29;1169;-72
2022/03/17 01:01:38;;;;;;;26.85;24.02;;;;;;;;;;510619;29;1211;-72
2022/03/17 01:01:54;;;;;;;27.20;24.40;;;;;;;;;;512088;29;1019;-72
2022/03/17 01:02:09;;;;;;;27.13;24.33;;;;;;;;;;510120;29;1249;-72
2022/03/17 01:02:24;;;;;;;27.70;24.80;;;;;;;;;;509397;29;825;-72
2022/03/17 01:02:44;;;;;;;27.53;24.70;;;;;;;;;;510270;29;1260;-72
2022/03/17 01:03:01;;;;;;;27.10;24.35;;;;;;;;;;512281;29;1028;-72
2022/03/17 01:03:16;;;;;;;26.65;23.95;;;;;;;;;;511835;28;1519;-72
2022/03/17 01:03:31;;;;;;;26.93;24.23;;;;;;;;;;511504;28;1150;-72
2022/03/17 01:03:47;;;;;;;27.30;24.50;;;;;;;;;;514025;28;804;-72
2022/03/17 01:04:02;;;;;;;27.50;24.60;;;;;;;;;;511598;28;1262;-72
2022/03/17 01:04:17;;;;;;;27.55;24.65;;;;;;;;;;509849;29;1133;-72
2022/03/17 01:04:34;;;;;;;26.93;24.13;;;;;;;;;;510679;29;837;-72
2022/03/17 01:04:49;;;;;;;26.55;23.73;;;;;;;;;;511904;29;1047;-72
2022/03/17 01:05:06;;;;;;;26.73;23.93;;;;;;;;;;511728;29;734;-72
2022/03/17 01:05:22;;;;;;;27.58;24.65;;;;;;;;;;512477;28;832;-72
2022/03/17 01:05:39;;;;;;;27.67;24.70;;;;;;;;;;512105;28;836;-72
2022/03/17 01:05:54;;;;;;;27.55;24.40;;;;;;;;;;513010;28;830;-72
2022/03/17 01:06:10;;;;;;;27.02;24.15;;;;;;;;;;512792;28;1423;-72
2022/03/17 01:06:25;;;;;;;26.85;24.15;;;;;;;;;;514172;28;785;-72
2022/03/17 01:06:40;;;;;;;27.07;24.30;;;;;;;;;;513773;28;781;-72
2022/03/17 01:06:56;;;;;;;27.07;24.27;;;;;;;;;;514271;28;873;-72
2022/03/17 01:07:11;;;;;;;27.08;24.25;;;;;;;;;;514204;28;761;-72
2022/03/17 01:07:26;;;;;;;27.03;24.23;;;;;;;;;;514483;28;737;-72
2022/03/17 01:07:42;;;;;;;26.80;24.10;;;;;;;;;;516180;28;1969;-72
2022/03/17 01:07:57;;;;;;;26.92;24.23;;;;;;;;;;514368;28;1137;-72
2022/03/17 01:08:13;;;;;;;26.80;24.10;;;;;;;;;;513153;28;1472;-72
2022/03/17 01:08:29;;;;;;;26.55;23.85;;;;;;;;;;510801;29;1457;-72
2022/03/17 01:08:44;;;;;;;26.40;23.80;;;;;;;;;;511349;29;840;-72
2022/03/17 01:08:59;;;;;;;26.47;23.77;;;;;;;;;;508085;29;1170;-72
2022/03/17 01:09:14;;;;;;;26.53;23.70;;;;;;;;;;508242;29;834;-72
2022/03/17 01:09:30;;;;;;;26.83;24.03;;;;;;;;;;509998;29;1252;-72
2022/03/17 01:09:45;;;;;;;26.75;24.05;;;;;;;;;;510343;29;916;-72
2022/03/17 01:10:01;;;;;;;26.50;23.90;;;;;;;;;;511622;28;1318;-72
2022/03/17 01:10:17;;;;;;;26.55;23.85;;;;;;;;;;514412;28;741;-72
2022/03/17 01:10:32;;;;;;;26.42;23.73;;;;;;;;;;514080;28;838;-72
2022/03/17 01:10:49;;;;;;;26.63;23.93;;;;;;;;;;513795;28;1336;-72
2022/03/17 01:11:06;;;;;;;26.52;23.88;;;;;;;;;;515834;28;808;-72
2022/03/17 01:11:22;;;;;;;26.17;23.50;;;;;;;;;;515307;28;1231;-73
2022/03/17 01:11:37;;;;;;;26.15;23.42;;;;;;;;;;514019;28;809;-72
2022/03/17 01:11:52;;;;;;;27.27;24.37;;;;;;;;;;511804;28;1186;-72
2022/03/17 01:12:08;;;;;;;27.50;24.70;;;;;;;;;;511979;29;1276;-72
2022/03/17 01:12:23;;;;;;;27.27;24.58;;;;;;;;;;511448;29;1196;-72
2022/03/17 01:12:39;;;;;;;27.10;24.40;;;;;;;;;;507755;29;1229;-72
2022/03/17 01:12:55;;;;;;;27.15;24.35;;;;;;;;;;508278;29;1197;-72
2022/03/17 01:13:11;;;;;;;27.52;24.73;;;;;;;;;;510322;29;1401;-72
2022/03/17 01:13:26;;;;;;;27.50;24.80;;;;;;;;;;511959;29;932;-72
2022/03/17 01:13:42;;;;;;;27.17;24.47;;;;;;;;;;509924;29;1194;-72
2022/03/17 01:13:57;;;;;;;27.50;24.58;;;;;;;;;;507916;29;1377;-72
2022/03/17 01:14:13;;;;;;;27.33;24.43;;;;;;;;;;508567;29;960;-72
2022/03/17 01:14:29;;;;;;;26.58;23.98;;;;;;;;;;506693;29;1415;-72
2022/03/17 01:14:44;;;;;;;26.50;23.80;;;;;;;;;;508217;29;794;-72
2022/03/17 01:15:00;;;;;;;27.33;24.53;;;;;;;;;;507406;29;762;-72
2022/03/17 01:15:17;;;;;;;27.38;24.63;;;;;;;;;;508146;29;1327;-72
2022/03/17 01:15:33;;;;;;;26.38;23.77;;;;;;;;;;510211;29;790;-72
2022/03/17 01:15:48;;;;;;;26.47;23.77;;;;;;;;;;510061;29;1235;-72
2022/03/17 01:16:03;;;;;;;26.50;23.80;;;;;;;;;;512184;29;857;-72
2022/03/17 01:16:19;;;;;;;27.00;24.20;;;;;;;;;;511963;29;769;-72
2022/03/17 01:16:34;;;;;;;27.73;24.77;;;;;;;;;;512194;29;1140;-72
2022/03/17 01:16:50;;;;;;;27.20;24.33;;;;;;;;;;511974;29;1290;-72
2022/03/17 01:17:05;;;;;;;26.77;24.08;;;;;;;;;;510148;29;1202;-72
2022/03/17 01:17:21;;;;;;;26.67;23.95;;;;;;;;;;512158;29;912;-72
2022/03/17 01:17:36;;;;;;;26.47;23.63;;;;;;;;;;512213;29;734;-72
2022/03/17 01:17:52;;;;;;;26.20;23.45;;;;;;;;;;513037;28;1261;-72
2022/03/17 01:18:07;;;;;;;25.70;23.07;;;;;;;;;;514027;28;842;-72
2022/03/17 01:18:23;;;;;;;26.40;23.70;;;;;;;;;;511123;28;1544;-72
2022/03/17 01:18:39;;;;;;;26.65;24.05;;;;;;;;;;509545;29;1191;-72
2022/03/17 01:18:54;;;;;;;26.23;23.67;;;;;;;;;;507962;29;1132;-72
2022/03/17 01:19:09;;;;;;;26.40;23.70;;;;;;;;;;509763;29;770;-72
2022/03/17 01:19:26;;;;;;;27.25;24.55;;;;;;;;;;508599;29;1277;-72
2022/03/17 01:19:41;;;;;;;27.52;24.70;;;;;;;;;;508615;29;814;-72
2022/03/17 01:19:57;;;;;;;26.87;23.97;;;;;;;;;;509453;29;849;-72
2022/03/17 01:20:12;;;;;;;26.60;23.90;;;;;;;;;;510165;29;1310;-72
2022/03/17 01:20:29;;;;;;;25.60;23.10;;;;;;;;;;510116;29;1068;-72
2022/03/17 01:20:44;;;;;;;25.10;22.67;;;;;;;;;;510731;29;801;-72
2022/03/17 01:20:59;;;;;;;25.90;23.30;;;;;;;;;;512069;29;790;-72
2022/03/17 01:21:15;;;;;;;25.80;23.20;;;;;;;;;;510010;29;1223;-72
2022/03/17 01:21:30;;;;;;;25.73;23.23;;;;;;;;;;511940;29;931;-72
2022/03/17 01:21:47;;;;;;;26.08;23.48;;;;;;;;;;509870;29;1265;-72
2022/03/17 01:22:02;;;;;;;25.90;23.40;;;;;;;;;;510542;29;829;-72
2022/03/17 01:22:18;;;;;;;25.93;23.33;;;;;;;;;;509640;29;1135;-72
2022/03/17 01:22:34;;;;;;;25.83;23.23;;;;;;;;;;509972;29;892;-72
2022/03/17 01:22:49;;;;;;;25.63;22.93;;;;;;;;;;508000;29;1285;-72
2022/03/17 01:23:04;;;;;;;25.25;22.67;;;;;;;;;;506451;29;1243;-72
2022/03/17 01:23:20;;;;;;;25.67;23.07;;;;;;;;;;506994;29;1556;-73
2022/03/17 01:23:35;;;;;;;25.87;23.27;;;;;;;;;;508719;29;799;-72
2022/03/17 01:23:50;;;;;;;26.13;23.52;;;;;;;;;;508124;29;1296;-72
2022/03/17 01:24:06;;;;;;;26.47;23.77;;;;;;;;;;505699;29;1181;-72
2022/03/17 01:24:21;;;;;;;26.07;23.47;;;;;;;;;;507275;29;757;-72
2022/03/17 01:24:36;;;;;;;25.95;23.45;;;;;;;;;;506144;29;1277;-72
2022/03/17 01:24:52;;;;;;;26.33;23.63;;;;;;;;;;506200;29;913;-72
2022/03/17 01:25:08;;;;;;;26.00;23.33;;;;;;;;;;508066;29;583;-72
2022/03/17 01:25:23;;;;;;;25.70;23.17;;;;;;;;;;507616;29;1398;-72
2022/03/17 01:25:38;;;;;;;26.03;23.43;;;;;;;;;;508274;29;1149;-72
2022/03/17 01:25:54;;;;;;;26.30;23.60;;;;;;;;;;510215;29;793;-72
2022/03/17 01:26:09;;;;;;;25.70;23.15;;;;;;;;;;511944;29;873;-72
2022/03/17 01:26:24;;;;;;;25.60;23.10;;;;;;;;;;510046;29;1424;-72
2022/03/17 01:26:40;;;;;;;25.90;23.30;;;;;;;;;;510214;29;940;-72
2022/03/17 01:26:55;;;;;;;26.15;23.38;;;;;;;;;;510111;29;785;-72
2022/03/17 01:27:11;;;;;;;26.47;23.67;;;;;;;;;;508198;29;1139;-72
2022/03/17 01:27:26;;;;;;;26.38;23.65;;;;;;;;;;507840;29;948;-72
2022/03/17 01:27:42;;;;;;;26.23;23.53;;;;;;;;;;509987;29;1978;-72
2022/03/17 01:27:57;;;;;;;26.20;23.58;;;;;;;;;;510099;29;869;-72
2022/03/17 01:28:13;;;;;;;26.23;23.50;;;;;;;;;;508083;29;1700;-72
2022/03/17 01:28:28;;;;;;;26.02;23.33;;;;;;;;;;508826;29;1151;-72
2022/03/17 01:28:43;;;;;;;26.10;23.50;;;;;;;;;;507873;29;831;-72
2022/03/17 01:28:58;;;;;;;25.87;23.17;;;;;;;;;;504555;29;1207;-72
2022/03/17 01:29:15;;;;;;;26.10;23.33;;;;;;;;;;505995;29;754;-72
2022/03/17 01:29:31;;;;;;;26.70;24.02;;;;;;;;;;505922;29;844;-72
2022/03/17 01:29:47;;;;;;;26.33;23.73;;;;;;;;;;506149;29;1284;-72
2022/03/17 01:30:04;;;;;;;26.52;23.92;;;;;;;;;;506351;29;775;-72
2022/03/17 01:30:21;;;;;;;26.08;23.48;;;;;;;;;;509197;29;1183;-72
2022/03/17 01:30:36;;;;;;;25.58;23.08;;;;;;;;;;513055;28;730;-72
2022/03/17 01:30:52;;;;;;;25.83;23.23;;;;;;;;;;514789;28;1140;-72
2022/03/17 01:31:08;;;;;;;25.75;23.15;;;;;;;;;;513066;28;1492;-72
2022/03/17 01:31:24;;;;;;;25.13;22.63;;;;;;;;;;510693;29;1359;-72
2022/03/17 01:31:39;;;;;;;24.30;21.90;;;;;;;;;;508913;29;1410;-72
2022/03/17 01:31:55;;;;;;;24.93;22.47;;;;;;;;;;506154;29;1231;-72
2022/03/17 01:32:10;;;;;;;25.50;23.00;;;;;;;;;;506201;29;834;-72
2022/03/17 01:32:25;;;;;;;25.87;23.37;;;;;;;;;;505949;29;1024;-72
2022/03/17 01:32:41;;;;;;;25.27;22.77;;;;;;;;;;506076;29;1203;-72
2022/03/17 01:32:56;;;;;;;25.15;22.65;;;;;;;;;;506182;29;754;-72
2022/03/17 01:33:11;;;;;;;24.60;22.20;;;;;;;;;;505633;29;1577;-72
2022/03/17 01:33:26;;;;;;;24.97;22.47;;;;;;;;;;507668;29;1190;-72
2022/03/17 01:33:42;;;;;;;26.20;23.57;;;;;;;;;;505190;29;1183;-72
2022/03/17 01:33:58;;;;;;;25.57;23.03;;;;;;;;;;505564;29;1336;-72
2022/03/17 01:34:13;;;;;;;25.48;22.98;;;;;;;;;;506127;29;849;-72
2022/03/17 01:34:29;;;;;;;25.00;22.52;;;;;;;;;;504139;29;1239;-72
2022/03/17 01:34:44;;;;;;;25.30;22.80;;;;;;;;;;504023;29;1179;-72
2022/03/17 01:35:00;;;;;;;26.15;23.48;;;;;;;;;;503947;29;988;-72
2022/03/17 01:35:15;;;;;;;26.30;23.63;;;;;;;;;;506392;29;1266;-72
2022/03/17 01:35:30;;;;;;;26.17;23.57;;;;;;;;;;510128;29;821;-72